createdAt,value
2023-02-28T00:01:11.387Z,-0.03
2023-02-28T00:03:47.765Z,-0.08
2023-02-28T00:06:25.362Z,-0.12
2023-02-28T00:09:01.820Z,-0.15
2023-02-28T00:11:39.105Z,-0.17
2023-02-28T00:14:15.575Z,-0.17
2023-02-28T00:16:52.088Z,-0.19
2023-02-28T00:19:28.363Z,-0.18
2023-02-28T00:22:04.693Z,-0.19
2023-02-28T00:24:41.114Z,-0.21
2023-02-28T00:27:17.812Z,-0.23
2023-02-28T00:29:56.328Z,-0.28
2023-02-28T00:32:32.713Z,-0.31
2023-02-28T00:35:11.431Z,-0.35
2023-02-28T00:37:47.868Z,-0.39
2023-02-28T00:40:24.974Z,-0.43
2023-02-28T00:43:04.405Z,-0.47
2023-02-28T00:45:40.867Z,-0.52
2023-02-28T00:48:17.307Z,-0.57
2023-02-28T00:50:56.896Z,-0.64
2023-02-28T00:53:34.702Z,-0.69
2023-02-28T00:56:12.801Z,-0.76
2023-02-28T00:58:49.199Z,-0.83
2023-02-28T01:01:25.711Z,-0.89
2023-02-28T01:04:02.183Z,-0.95
2023-02-28T01:06:39.135Z,-1.01
2023-02-28T01:09:16.116Z,-1.07
2023-02-28T01:11:52.446Z,-1.11
2023-02-28T01:14:29.410Z,-1.15
2023-02-28T01:17:07.514Z,-1.20
2023-02-28T01:19:44.789Z,-1.26
2023-02-28T01:22:21.363Z,-1.32
2023-02-28T01:24:58.209Z,-1.38
2023-02-28T01:27:35.743Z,-1.45
2023-02-28T01:30:15.789Z,-1.52
2023-02-28T01:32:54.553Z,-1.56
2023-02-28T01:35:31.056Z,-1.58
2023-02-28T01:38:21.262Z,-1.60
2023-02-28T01:40:58.860Z,-1.59
2023-02-28T01:43:56.841Z,-1.56
2023-02-28T01:46:34.012Z,-1.42
2023-02-28T01:49:18.657Z,-1.43
2023-02-28T01:51:59.200Z,-1.46
2023-02-28T01:54:39.690Z,-1.46
2023-02-28T01:57:21.491Z,-1.44
2023-02-28T02:00:04.453Z,-1.43
2023-02-28T02:02:55.804Z,-1.39
2023-02-28T02:05:35.374Z,-1.38
2023-02-28T02:08:19.485Z,-1.36
2023-02-28T02:10:59.745Z,-1.35
2023-02-28T02:14:04.489Z,-1.35
2023-02-28T02:17:01.100Z,-1.38
2023-02-28T02:20:29.744Z,-1.41
2023-02-28T02:23:44.833Z,-1.47
2023-02-28T02:27:11.390Z,-1.52
2023-02-28T02:30:35.143Z,-1.60
2023-02-28T02:33:38.357Z,-1.66
2023-02-28T02:36:26.238Z,-1.72
2023-02-28T02:39:14.758Z,-1.78
2023-02-28T02:41:56.642Z,-1.84
2023-02-28T02:44:42.289Z,-1.89
2023-02-28T02:47:26.585Z,-1.95
2023-02-28T02:50:10.716Z,-2.00
2023-02-28T02:52:56.952Z,-2.06
2023-02-28T02:55:39.377Z,-2.11
2023-02-28T02:58:22.476Z,-2.16
2023-02-28T03:01:05.836Z,-2.21
2023-02-28T03:03:42.860Z,-2.25
2023-02-28T03:06:20.439Z,-2.29
2023-02-28T03:08:57.846Z,-2.33
2023-02-28T03:11:37.358Z,-2.38
2023-02-28T03:14:47.632Z,-2.42
2023-02-28T03:17:55.670Z,-2.46
2023-02-28T03:20:52.275Z,-2.51
2023-02-28T03:23:40.747Z,-2.54
2023-02-28T03:26:29.117Z,-2.57
2023-02-28T03:29:18.437Z,-2.59
2023-02-28T03:32:06.563Z,-2.62
2023-02-28T03:34:53.504Z,-2.65
2023-02-28T03:37:35.736Z,-2.67
2023-02-28T03:40:19.328Z,-2.70
2023-02-28T03:43:02.885Z,-2.72
2023-02-28T03:45:43.629Z,-2.74
2023-02-28T03:48:29.931Z,-2.75
2023-02-28T03:51:12.120Z,-2.78
2023-02-28T03:53:55.646Z,-2.81
2023-02-28T03:56:40.639Z,-2.83
2023-02-28T03:59:27.656Z,-2.84
2023-02-28T04:02:04.552Z,-2.85
2023-02-28T04:04:49.847Z,-2.87
2023-02-28T04:07:27.225Z,-2.89
2023-02-28T04:10:04.293Z,-2.92
2023-02-28T04:12:40.817Z,-2.93
2023-02-28T04:15:17.610Z,-2.95
2023-02-28T04:17:54.253Z,-2.96
2023-02-28T04:20:30.832Z,-2.97
2023-02-28T04:23:07.284Z,-2.99
2023-02-28T04:25:43.870Z,-3.00
2023-02-28T04:28:20.340Z,-3.00
2023-02-28T04:31:03.874Z,-2.99
2023-02-28T04:33:40.238Z,-2.98
2023-02-28T04:36:18.787Z,-2.97
2023-02-28T04:38:55.328Z,-2.97
2023-02-28T04:41:32.950Z,-2.96
2023-02-28T04:44:09.888Z,-2.99
2023-02-28T04:46:46.647Z,-3.00
2023-02-28T04:49:23.040Z,-3.00
2023-02-28T04:51:59.514Z,-2.99
2023-02-28T04:54:36.428Z,-2.99
2023-02-28T04:57:12.793Z,-2.98
2023-02-28T04:59:49.186Z,-2.96
2023-02-28T05:02:25.738Z,-2.97
2023-02-28T05:05:02.248Z,-2.99
2023-02-28T05:07:39.077Z,-3.00
2023-02-28T05:10:17.155Z,-3.01
2023-02-28T05:12:53.615Z,-3.03
2023-02-28T05:15:30.177Z,-3.05
2023-02-28T05:18:06.974Z,-3.08
2023-02-28T05:20:44.234Z,-3.11
2023-02-28T05:23:25.314Z,-3.13
2023-02-28T05:26:01.745Z,-3.14
2023-02-28T05:28:38.036Z,-3.15
2023-02-28T05:31:16.571Z,-3.16
2023-02-28T05:33:53.618Z,-3.15
2023-02-28T05:36:29.984Z,-3.12
2023-02-28T05:39:07.075Z,-3.10
2023-02-28T05:41:45.287Z,-3.07
2023-02-28T05:44:21.543Z,-3.02
2023-02-28T05:46:57.921Z,-2.98
2023-02-28T05:49:34.618Z,-2.93
2023-02-28T05:52:11.877Z,-2.87
2023-02-28T05:54:49.913Z,-2.79
2023-02-28T05:57:26.460Z,-2.72
2023-02-28T06:00:03.451Z,-2.64
2023-02-28T06:02:48.817Z,-2.56
2023-02-28T06:05:26.380Z,-2.48
2023-02-28T06:08:02.801Z,-2.40
2023-02-28T06:10:39.280Z,-2.32
2023-02-28T06:13:16.445Z,-2.22
2023-02-28T06:15:52.797Z,-2.13
2023-02-28T06:18:29.262Z,-2.04
2023-02-28T06:21:05.924Z,-1.94
2023-02-28T06:23:42.454Z,-1.82
2023-02-28T06:26:19.219Z,-1.69
2023-02-28T06:28:56.037Z,-1.56
2023-02-28T06:31:33.141Z,-1.42
2023-02-28T06:34:10.136Z,-1.29
2023-02-28T06:36:47.508Z,-1.17
2023-02-28T06:39:24.520Z,-1.06
2023-02-28T06:42:00.720Z,-0.94
2023-02-28T06:44:37.394Z,-0.84
2023-02-28T06:47:13.815Z,-0.73
2023-02-28T06:49:50.478Z,-0.65
2023-02-28T06:52:27.013Z,-0.60
2023-02-28T06:55:04.230Z,-0.55
2023-02-28T06:57:41.360Z,-0.53
2023-02-28T07:00:21.026Z,-0.51
2023-02-28T07:02:57.658Z,-0.48
2023-02-28T07:05:36.660Z,-0.47
2023-02-28T07:08:14.231Z,-0.46
2023-02-28T07:10:53.616Z,-0.34
2023-02-28T07:13:30.330Z,-0.09
2023-02-28T07:16:11.636Z,0.12
2023-02-28T07:18:48.534Z,0.30
2023-02-28T07:21:25.525Z,0.41
2023-02-28T07:24:02.995Z,0.50
2023-02-28T07:26:39.439Z,0.55
2023-02-28T07:29:15.932Z,0.57
2023-02-28T07:31:54.293Z,0.59
2023-02-28T07:34:30.592Z,0.67
2023-02-28T07:37:07.564Z,0.91
2023-02-28T07:39:44.978Z,1.16
2023-02-28T07:42:22.552Z,1.29
2023-02-28T07:45:01.285Z,1.39
2023-02-28T07:47:38.167Z,1.42
2023-02-28T07:50:18.424Z,1.40
2023-02-28T07:52:54.751Z,1.42
2023-02-28T07:55:31.443Z,1.45
2023-02-28T07:58:08.030Z,1.45
2023-02-28T08:00:44.433Z,1.47
2023-02-28T08:03:22.682Z,1.49
2023-02-28T08:05:59.575Z,1.56
2023-02-28T08:08:36.504Z,1.65
2023-02-28T08:11:12.850Z,1.69
2023-02-28T08:13:50.208Z,1.71
2023-02-28T08:16:27.021Z,1.76
2023-02-28T08:19:04.387Z,1.82
2023-02-28T08:21:40.947Z,1.90
2023-02-28T08:24:17.408Z,1.96
2023-02-28T08:26:53.977Z,2.00
2023-02-28T08:29:31.385Z,2.07
2023-02-28T08:32:14.726Z,2.11
2023-02-28T08:34:57.148Z,2.27
2023-02-28T08:37:33.460Z,2.44
2023-02-28T08:40:19.186Z,2.65
2023-02-28T08:42:55.713Z,2.86
2023-02-28T08:45:32.323Z,3.01
2023-02-28T08:48:09.535Z,3.01
2023-02-28T08:50:50.445Z,3.00
2023-02-28T08:53:32.834Z,3.08
2023-02-28T08:56:12.894Z,3.13
2023-02-28T08:58:51.304Z,3.12
2023-02-28T09:01:31.511Z,3.12
2023-02-28T09:04:09.620Z,3.24
2023-02-28T09:06:46.186Z,3.44
2023-02-28T09:09:22.738Z,3.79
2023-02-28T09:12:01.039Z,4.01
2023-02-28T09:14:38.002Z,4.09
2023-02-28T09:17:14.259Z,4.18
2023-02-28T09:19:52.800Z,4.18
2023-02-28T09:22:29.493Z,4.11
2023-02-28T09:25:06.660Z,3.99
2023-02-28T09:27:43.203Z,3.86
2023-02-28T09:30:21.489Z,3.78
2023-02-28T09:32:58.140Z,3.81
2023-02-28T09:35:35.087Z,3.80
2023-02-28T09:38:12.000Z,3.72
2023-02-28T09:40:57.741Z,3.71
2023-02-28T09:43:40.181Z,3.74
2023-02-28T09:46:33.781Z,3.76
2023-02-28T09:49:17.396Z,3.61
2023-02-28T09:52:04.460Z,3.43
2023-02-28T09:54:41.713Z,3.28
2023-02-28T09:57:40.225Z,3.22
2023-02-28T10:00:27.095Z,3.16
2023-02-28T10:03:38.354Z,3.11
2023-02-28T10:06:23.002Z,3.02
2023-02-28T10:09:10.274Z,2.94
2023-02-28T10:11:48.715Z,2.90
2023-02-28T10:14:30.942Z,2.89
2023-02-28T10:17:16.521Z,2.90
2023-02-28T10:20:09.047Z,2.86
2023-02-28T10:23:08.490Z,2.82
2023-02-28T10:25:52.139Z,2.72
2023-02-28T10:28:33.262Z,2.64
2023-02-28T10:31:14.174Z,2.62
2023-02-28T10:33:52.214Z,2.62
2023-02-28T10:36:29.616Z,2.60
2023-02-28T10:39:40.182Z,2.55
2023-02-28T10:42:31.328Z,2.51
2023-02-28T10:45:20.968Z,2.46
2023-02-28T10:48:05.374Z,2.34
2023-02-28T10:50:57.925Z,2.24
2023-02-28T10:54:00.672Z,2.25
2023-02-28T10:56:38.062Z,2.34
2023-02-28T10:59:35.910Z,2.35
2023-02-28T11:02:39.459Z,2.33
2023-02-28T11:05:35.061Z,2.30
2023-02-28T11:08:19.803Z,2.31
2023-02-28T11:11:06.019Z,2.35
2023-02-28T11:13:43.088Z,2.37
2023-02-28T11:16:20.607Z,2.38
2023-02-28T11:19:00.990Z,2.42
2023-02-28T11:21:41.422Z,2.46
2023-02-28T11:24:30.803Z,2.47
2023-02-28T11:27:08.535Z,2.45
2023-02-28T11:29:52.236Z,2.42
2023-02-28T11:32:31.468Z,2.42
2023-02-28T11:35:23.511Z,2.41
2023-02-28T11:38:01.086Z,2.37
2023-02-28T11:40:53.919Z,2.38
2023-02-28T11:43:59.560Z,2.43
2023-02-28T11:46:48.593Z,2.51
2023-02-28T11:49:44.125Z,2.53
2023-02-28T11:52:44.844Z,2.52
2023-02-28T11:55:29.954Z,2.51
2023-02-28T11:58:40.856Z,2.51
2023-02-28T12:01:38.205Z,2.48
2023-02-28T12:04:37.306Z,2.45
2023-02-28T12:07:28.826Z,2.44
2023-02-28T12:10:21.443Z,2.42
2023-02-28T12:13:20.214Z,2.42
2023-02-28T12:16:30.382Z,2.43
2023-02-28T12:19:23.257Z,2.45
2023-02-28T12:22:41.023Z,2.46
2023-02-28T12:26:13.373Z,2.48
2023-02-28T12:28:54.212Z,2.47
2023-02-28T12:31:38.183Z,2.47
2023-02-28T12:34:21.698Z,2.48
2023-02-28T12:37:00.898Z,2.49
2023-02-28T12:39:50.454Z,2.50
2023-02-28T12:42:35.824Z,2.50
2023-02-28T12:45:22.112Z,2.50
2023-02-28T12:48:06.468Z,2.51
2023-02-28T12:50:44.412Z,2.51
2023-02-28T12:53:32.933Z,2.51
2023-02-28T12:56:23.867Z,2.51
2023-02-28T12:59:09.874Z,2.52
2023-02-28T13:02:12.580Z,2.51
2023-02-28T13:05:54.577Z,2.53
2023-02-28T13:09:15.752Z,2.52
2023-02-28T13:11:54.645Z,2.51
2023-02-28T13:14:40.269Z,2.51
2023-02-28T13:17:27.073Z,2.51
2023-02-28T13:20:17.155Z,2.52
2023-02-28T13:22:58.946Z,2.51
2023-02-28T13:26:00.261Z,2.50
2023-02-28T13:29:24.524Z,2.50
2023-02-28T13:32:41.704Z,2.48
2023-02-28T13:35:47.988Z,2.48
2023-02-28T13:38:43.764Z,2.45
2023-02-28T13:42:20.497Z,2.43
2023-02-28T13:45:39.606Z,2.42
2023-02-28T13:48:31.920Z,2.39
2023-02-28T13:51:46.064Z,2.38
2023-02-28T13:54:43.254Z,2.38
2023-02-28T13:57:44.751Z,2.40
2023-02-28T14:00:46.038Z,2.39
2023-02-28T14:03:49.025Z,2.38
2023-02-28T14:06:33.462Z,2.39
2023-02-28T14:09:26.612Z,2.38
2023-02-28T14:13:00.576Z,2.37
2023-02-28T14:16:01.744Z,2.36
2023-02-28T14:18:42.816Z,2.38
2023-02-28T14:21:30.170Z,2.40
2023-02-28T14:25:11.875Z,2.41
2023-02-28T14:28:06.321Z,2.42
2023-02-28T14:31:03.648Z,2.41
2023-02-28T14:34:05.632Z,2.39
2023-02-28T14:36:46.744Z,2.34
2023-02-28T14:39:27.881Z,2.31
2023-02-28T14:42:06.046Z,2.26
2023-02-28T14:44:43.301Z,2.24
2023-02-28T14:47:22.945Z,2.21
2023-02-28T14:50:01.623Z,2.19
2023-02-28T14:52:39.071Z,2.17
2023-02-28T14:55:24.060Z,2.15
2023-02-28T14:58:05.241Z,2.10
2023-02-28T15:00:53.820Z,2.07
2023-02-28T15:03:38.229Z,2.03
2023-02-28T15:09:22.311Z,1.97
2023-02-28T15:12:00.265Z,1.93
2023-02-28T15:14:39.420Z,1.90
2023-02-28T15:17:27.372Z,1.87
2023-02-28T15:20:04.818Z,1.83
2023-02-28T15:22:44.352Z,1.79
2023-02-28T15:25:26.139Z,1.75
2023-02-28T15:28:03.295Z,1.72
2023-02-28T15:30:40.772Z,1.68
2023-02-28T15:33:29.795Z,1.65
2023-02-28T15:36:22.010Z,1.62
2023-02-28T15:39:07.091Z,1.58
2023-02-28T15:41:51.518Z,1.53
2023-02-28T15:44:41.325Z,1.49
2023-02-28T15:47:25.832Z,1.44
2023-02-28T15:50:11.875Z,1.38
2023-02-28T15:52:50.321Z,1.33
2023-02-28T15:55:32.096Z,1.26
2023-02-28T15:58:13.543Z,1.20
2023-02-28T16:01:26.651Z,1.17
2023-02-28T16:04:09.506Z,1.12
2023-02-28T16:06:47.864Z,1.06
2023-02-28T16:09:24.777Z,1.00
2023-02-28T16:12:06.555Z,0.94
2023-02-28T16:14:42.200Z,0.87
2023-02-28T16:17:26.925Z,0.80
2023-02-28T16:20:07.968Z,0.72
2023-02-28T16:22:46.717Z,0.64
2023-02-28T16:25:31.140Z,0.56
2023-02-28T16:28:15.042Z,0.47
2023-02-28T16:30:53.284Z,0.38
2023-02-28T16:33:30.298Z,0.31
2023-02-28T16:36:12.136Z,0.23
2023-02-28T16:39:12.995Z,0.15
2023-02-28T16:41:54.986Z,0.06
2023-02-28T16:44:38.189Z,-0.03
2023-02-28T16:47:17.006Z,-0.11
2023-02-28T16:49:54.098Z,-0.20
2023-02-28T16:52:31.253Z,-0.29
2023-02-28T16:55:10.386Z,-0.38
2023-02-28T16:57:49.987Z,-0.46
2023-02-28T17:00:32.210Z,-0.52
2023-02-28T17:03:12.918Z,-0.59
2023-02-28T17:05:49.789Z,-0.68
2023-02-28T17:08:26.614Z,-0.74
2023-02-28T17:11:03.786Z,-0.81
2023-02-28T17:13:40.904Z,-0.86
2023-02-28T17:16:28.892Z,-0.92
2023-02-28T17:19:11.985Z,-0.98
2023-02-28T17:21:49.559Z,-1.04
2023-02-28T17:24:31.131Z,-1.10
2023-02-28T17:27:11.647Z,-1.15
2023-02-28T17:29:48.472Z,-1.20
2023-02-28T17:32:25.769Z,-1.26
2023-02-28T17:35:02.605Z,-1.30
2023-02-28T17:37:39.661Z,-1.35
2023-02-28T17:40:24.566Z,-1.39
2023-02-28T17:43:01.267Z,-1.42
2023-02-28T17:45:38.345Z,-1.45
2023-02-28T17:48:16.879Z,-1.49
2023-02-28T17:50:53.617Z,-1.53
2023-02-28T17:53:30.387Z,-1.57
2023-02-28T17:56:07.493Z,-1.60
2023-02-28T17:58:44.525Z,-1.64
2023-02-28T18:01:23.784Z,-1.68
2023-02-28T18:04:01.131Z,-1.71
2023-02-28T18:06:47.604Z,-1.74
2023-02-28T18:09:26.897Z,-1.78
2023-02-28T18:12:03.801Z,-1.83
2023-02-28T18:14:41.170Z,-1.87
2023-02-28T18:17:18.445Z,-1.91
2023-02-28T18:19:55.722Z,-1.93
2023-02-28T18:22:32.989Z,-1.95
2023-02-28T18:25:15.347Z,-1.99
2023-02-28T18:27:58.528Z,-2.03
2023-02-28T18:30:39.945Z,-2.07
2023-02-28T18:33:16.519Z,-2.10
2023-02-28T18:36:00.342Z,-2.12
2023-02-28T18:38:37.608Z,-2.15
2023-02-28T18:41:15.090Z,-2.17
2023-02-28T18:43:54.369Z,-2.20
2023-02-28T18:46:31.737Z,-2.23
2023-02-28T18:49:08.759Z,-2.26
2023-02-28T18:51:46.801Z,-2.30
2023-02-28T18:54:23.541Z,-2.34
2023-02-28T18:57:00.933Z,-2.38
2023-02-28T18:59:38.074Z,-2.40
2023-02-28T19:02:14.853Z,-2.43
2023-02-28T19:04:52.025Z,-2.45
2023-02-28T19:07:29.001Z,-2.48
2023-02-28T19:10:08.286Z,-2.48
2023-02-28T19:12:45.840Z,-2.48
2023-02-28T19:15:28.610Z,-2.47
2023-02-28T19:18:05.868Z,-2.48
2023-02-28T19:20:42.496Z,-2.49
2023-02-28T19:23:19.454Z,-2.51
2023-02-28T19:25:57.494Z,-2.53
2023-02-28T19:28:36.158Z,-2.57
2023-02-28T19:31:19.468Z,-2.58
2023-02-28T19:33:58.978Z,-2.60
2023-02-28T19:36:35.813Z,-2.63
2023-02-28T19:39:13.156Z,-2.63
2023-02-28T19:41:50.140Z,-2.66
2023-02-28T19:44:27.047Z,-2.69
2023-02-28T19:47:03.910Z,-2.70
2023-02-28T19:49:41.073Z,-2.73
2023-02-28T19:52:17.997Z,-2.74
2023-02-28T19:54:55.226Z,-2.76
2023-02-28T19:57:32.296Z,-2.78
2023-02-28T20:00:11.658Z,-2.80
2023-02-28T20:02:52.246Z,-2.82
2023-02-28T20:05:28.890Z,-2.85
2023-02-28T20:08:09.366Z,-2.88
2023-02-28T20:10:46.423Z,-2.91
2023-02-28T20:13:27.997Z,-2.93
2023-02-28T20:16:11.006Z,-2.95
2023-02-28T20:18:51.466Z,-2.96
2023-02-28T20:21:28.823Z,-2.99
2023-02-28T20:24:06.064Z,-2.98
2023-02-28T20:26:43.188Z,-2.98
2023-02-28T20:29:19.961Z,-2.98
2023-02-28T20:31:57.607Z,-2.98
2023-02-28T20:34:34.258Z,-2.99
2023-02-28T20:37:10.674Z,-3.00
2023-02-28T20:39:53.397Z,-3.00
2023-02-28T20:42:30.897Z,-3.01
2023-02-28T20:45:09.414Z,-3.02
2023-02-28T20:47:45.952Z,-3.02
2023-02-28T20:50:23.328Z,-3.03
2023-02-28T20:52:59.840Z,-3.05
2023-02-28T20:55:36.623Z,-3.05
2023-02-28T20:58:13.307Z,-3.06
2023-02-28T21:00:49.943Z,-3.07
2023-02-28T21:03:28.447Z,-3.08
2023-02-28T21:06:09.570Z,-3.09
2023-02-28T21:08:47.037Z,-3.09
2023-02-28T21:11:26.812Z,-3.10
2023-02-28T21:14:06.944Z,-3.10
2023-02-28T21:16:44.377Z,-3.12
2023-02-28T21:19:21.860Z,-3.12
2023-02-28T21:21:59.075Z,-3.13
2023-02-28T21:24:36.223Z,-3.14
2023-02-28T21:27:12.971Z,-3.14
2023-02-28T21:29:49.518Z,-3.15
2023-02-28T21:32:26.218Z,-3.15
2023-02-28T21:35:03.290Z,-3.16
2023-02-28T21:37:42.204Z,-3.17
2023-02-28T21:40:20.782Z,-3.17
2023-02-28T21:42:57.376Z,-3.19
2023-02-28T21:45:35.068Z,-3.20
2023-02-28T21:48:11.840Z,-3.22
2023-02-28T21:50:58.251Z,-3.24
2023-02-28T21:53:37.638Z,-3.25
2023-02-28T21:56:19.963Z,-3.27
2023-02-28T21:59:01.479Z,-3.29
2023-02-28T22:01:41.457Z,-3.30
2023-02-28T22:04:22.630Z,-3.32
2023-02-28T22:07:00.812Z,-3.34
2023-02-28T22:09:37.345Z,-3.35
2023-02-28T22:12:14.348Z,-3.36
2023-02-28T22:14:50.961Z,-3.37
2023-02-28T22:17:27.474Z,-3.38
2023-02-28T22:20:04.052Z,-3.39
2023-02-28T22:22:40.417Z,-3.41
2023-02-28T22:25:17.318Z,-3.42
2023-02-28T22:27:53.611Z,-3.41
2023-02-28T22:30:31.385Z,-3.43
2023-02-28T22:33:08.022Z,-3.44
2023-02-28T22:35:44.512Z,-3.44
2023-02-28T22:38:22.821Z,-3.47
2023-02-28T22:41:01.943Z,-3.49
2023-02-28T22:43:39.019Z,-3.51
2023-02-28T22:46:16.899Z,-3.54
2023-02-28T22:48:54.033Z,-3.56
2023-02-28T22:51:32.014Z,-3.58
2023-02-28T22:54:08.896Z,-3.59
2023-02-28T22:56:45.237Z,-3.60
2023-02-28T22:59:21.617Z,-3.62
2023-02-28T23:01:57.958Z,-3.63
2023-02-28T23:04:34.966Z,-3.64
2023-02-28T23:07:11.624Z,-3.66
2023-02-28T23:09:50.868Z,-3.67
2023-02-28T23:12:27.538Z,-3.69
2023-02-28T23:15:04.452Z,-3.69
2023-02-28T23:17:40.774Z,-3.70
2023-02-28T23:20:21.005Z,-3.71
2023-02-28T23:22:57.372Z,-3.74
2023-02-28T23:25:33.967Z,-3.74
2023-02-28T23:28:11.727Z,-3.76
2023-02-28T23:30:48.284Z,-3.77
2023-02-28T23:33:26.437Z,-3.78
2023-02-28T23:36:11.316Z,-3.79
2023-02-28T23:38:52.436Z,-3.81
2023-02-28T23:41:29.832Z,-3.82
2023-02-28T23:44:06.560Z,-3.82
2023-02-28T23:46:43.231Z,-3.83
2023-02-28T23:49:21.199Z,-3.84
2023-02-28T23:51:57.833Z,-3.84
2023-02-28T23:54:34.355Z,-3.83
2023-02-28T23:57:11.030Z,-3.84
2023-02-28T23:59:47.760Z,-3.84
